createdAt,value
2023-04-26T00:00:34.111Z,8.17
2023-04-26T00:03:03.807Z,5.07
2023-04-26T00:05:32.477Z,4.40
2023-04-26T00:08:00.920Z,6.23
2023-04-26T00:10:32.231Z,4.77
2023-04-26T00:13:00.624Z,5.93
2023-04-26T00:15:29.067Z,5.30
2023-04-26T00:17:58.889Z,5.37
2023-04-26T00:20:27.283Z,4.97
2023-04-26T00:22:55.604Z,5.67
2023-04-26T00:25:23.927Z,3.80
2023-04-26T00:27:53.882Z,4.53
2023-04-26T00:30:22.488Z,4.37
2023-04-26T00:32:50.929Z,6.77
2023-04-26T00:35:20.901Z,5.30
2023-04-26T00:37:49.403Z,3.60
2023-04-26T00:40:17.890Z,3.50
2023-04-26T00:42:48.866Z,4.07
2023-04-26T00:45:17.321Z,6.07
2023-04-26T00:47:45.806Z,4.73
2023-04-26T00:50:14.252Z,5.30
2023-04-26T00:52:44.578Z,4.37
2023-04-26T00:55:13.090Z,4.33
2023-04-26T00:57:41.477Z,6.50
2023-04-26T01:00:11.708Z,6.27
2023-04-26T01:02:40.345Z,4.70
2023-04-26T01:05:09.631Z,5.33
2023-04-26T01:07:38.667Z,3.97
2023-04-26T01:10:10.482Z,4.83
2023-04-26T01:12:39.517Z,4.13
2023-04-26T01:15:09.641Z,4.83
2023-04-26T01:17:38.457Z,5.00
2023-04-26T01:20:12.688Z,6.40
2023-04-26T01:22:42.749Z,4.83
2023-04-26T01:25:13.424Z,5.20
2023-04-26T01:27:41.869Z,4.30
2023-04-26T01:30:16.898Z,4.23
2023-04-26T01:32:45.177Z,4.93
2023-04-26T01:35:13.544Z,6.30
2023-04-26T01:37:43.322Z,6.17
2023-04-26T01:40:12.740Z,4.73
2023-04-26T01:42:41.101Z,4.60
2023-04-26T01:45:12.812Z,5.37
2023-04-26T01:47:41.083Z,4.33
2023-04-26T01:50:14.003Z,6.47
2023-04-26T01:52:43.726Z,8.70
2023-04-26T01:55:12.041Z,8.73
2023-04-26T01:57:40.375Z,7.93
2023-04-26T02:00:11.529Z,5.47
2023-04-26T02:02:39.901Z,5.77
2023-04-26T02:05:12.037Z,7.60
2023-04-26T02:07:43.362Z,6.50
2023-04-26T02:10:13.239Z,6.53
2023-04-26T02:12:41.620Z,6.63
2023-04-26T02:15:11.041Z,7.83
2023-04-26T02:17:40.132Z,6.27
2023-04-26T02:20:13.006Z,6.73
2023-04-26T02:22:41.289Z,8.73
2023-04-26T02:25:11.664Z,10.03
2023-04-26T02:27:41.956Z,6.13
2023-04-26T02:30:11.211Z,7.20
2023-04-26T02:32:39.604Z,6.63
2023-04-26T02:35:13.924Z,7.30
2023-04-26T02:37:42.179Z,7.63
2023-04-26T02:40:12.054Z,9.27
2023-04-26T02:42:41.808Z,7.00
2023-04-26T02:45:10.616Z,6.63
2023-04-26T02:47:41.477Z,8.10
2023-04-26T02:50:11.159Z,7.43
2023-04-26T02:52:39.558Z,11.73
2023-04-26T02:55:09.837Z,9.47
2023-04-26T02:57:38.130Z,6.50
2023-04-26T03:00:10.937Z,7.87
2023-04-26T03:02:39.392Z,8.80
2023-04-26T03:05:09.465Z,8.53
2023-04-26T03:07:38.026Z,7.60
2023-04-26T03:10:08.698Z,7.33
2023-04-26T03:12:37.009Z,8.93
2023-04-26T03:15:07.779Z,10.07
2023-04-26T03:17:38.803Z,7.47
2023-04-26T03:20:09.038Z,9.53
2023-04-26T03:22:37.375Z,7.67
2023-04-26T03:25:09.168Z,7.70
2023-04-26T03:27:37.517Z,10.50
2023-04-26T03:30:09.106Z,9.37
2023-04-26T03:32:38.465Z,6.90
2023-04-26T03:35:10.251Z,9.23
2023-04-26T03:37:40.205Z,11.57
2023-04-26T03:40:10.429Z,10.07
2023-04-26T03:42:38.937Z,9.70
2023-04-26T03:45:10.495Z,9.73
2023-04-26T03:47:38.834Z,10.57
2023-04-26T03:50:09.930Z,9.37
2023-04-26T03:52:38.212Z,8.60
2023-04-26T03:55:11.919Z,8.60
2023-04-26T03:57:40.447Z,7.63
2023-04-26T04:00:13.860Z,11.37
2023-04-26T04:02:42.461Z,7.70
2023-04-26T04:05:16.950Z,12.43
2023-04-26T04:07:45.486Z,9.00
2023-04-26T04:10:13.815Z,11.17
2023-04-26T04:12:42.154Z,12.17
2023-04-26T04:15:12.590Z,11.03
2023-04-26T04:17:43.739Z,8.00
2023-04-26T04:20:13.916Z,9.67
2023-04-26T04:22:42.295Z,11.13
2023-04-26T04:25:22.624Z,9.17
2023-04-26T04:27:51.997Z,8.50
2023-04-26T04:30:21.772Z,7.70
2023-04-26T04:32:50.207Z,8.13
2023-04-26T04:35:21.656Z,8.87
2023-04-26T04:37:50.679Z,7.13
2023-04-26T04:40:19.155Z,13.97
2023-04-26T04:42:47.547Z,9.13
2023-04-26T04:45:19.057Z,9.10
2023-04-26T04:47:48.952Z,11.17
2023-04-26T04:50:17.732Z,15.50
2023-04-26T04:52:46.279Z,8.43
2023-04-26T04:55:14.666Z,10.13
2023-04-26T04:57:43.357Z,7.93
2023-04-26T05:00:21.782Z,9.17
2023-04-26T05:02:51.587Z,9.43
2023-04-26T05:05:20.113Z,10.50
2023-04-26T05:07:48.458Z,11.47
2023-04-26T05:10:17.239Z,9.63
2023-04-26T05:12:46.537Z,10.17
2023-04-26T05:15:20.363Z,9.50
2023-04-26T05:17:50.260Z,9.43
2023-04-26T05:20:21.434Z,13.17
2023-04-26T05:22:49.710Z,11.20
2023-04-26T05:25:22.457Z,11.50
2023-04-26T05:27:53.931Z,9.90
2023-04-26T05:30:22.458Z,10.30
2023-04-26T05:32:52.182Z,12.17
2023-04-26T05:35:26.182Z,10.47
2023-04-26T05:37:57.342Z,10.23
2023-04-26T05:40:26.280Z,7.90
2023-04-26T05:42:54.579Z,7.83
2023-04-26T05:45:22.969Z,8.20
2023-04-26T05:47:52.838Z,11.00
2023-04-26T05:50:21.271Z,7.63
2023-04-26T05:52:49.617Z,7.90
2023-04-26T05:55:20.028Z,10.40
2023-04-26T05:57:48.433Z,7.93
2023-04-26T06:00:20.346Z,8.33
2023-04-26T06:02:48.921Z,9.30
2023-04-26T06:05:22.522Z,8.53
2023-04-26T06:07:51.925Z,6.93
2023-04-26T06:10:20.559Z,7.80
2023-04-26T06:12:49.114Z,6.57
2023-04-26T06:15:17.685Z,6.80
2023-04-26T06:17:46.340Z,9.77
2023-04-26T06:20:14.769Z,7.03
2023-04-26T06:22:44.462Z,8.83
2023-04-26T06:25:15.532Z,6.57
2023-04-26T06:27:43.912Z,6.67
2023-04-26T06:30:12.892Z,6.37
2023-04-26T06:32:43.837Z,7.07
2023-04-26T06:35:12.223Z,8.17
2023-04-26T06:37:40.776Z,7.90
2023-04-26T06:40:14.082Z,9.17
2023-04-26T06:42:42.446Z,8.70
2023-04-26T06:45:15.370Z,6.73
2023-04-26T06:47:43.714Z,7.87
2023-04-26T06:50:12.978Z,5.57
2023-04-26T06:52:41.541Z,7.23
2023-04-26T06:55:12.376Z,6.93
2023-04-26T06:57:40.763Z,6.63
2023-04-26T07:00:13.968Z,4.97
2023-04-26T07:02:42.505Z,8.60
2023-04-26T07:05:11.508Z,9.73
2023-04-26T07:07:40.018Z,6.97
2023-04-26T07:10:11.107Z,7.07
2023-04-26T07:12:39.412Z,4.47
2023-04-26T07:15:09.753Z,7.23
2023-04-26T07:17:38.058Z,5.57
2023-04-26T07:20:08.216Z,5.83
2023-04-26T07:22:36.486Z,6.10
2023-04-26T07:25:05.567Z,6.70
2023-04-26T07:27:35.251Z,5.73
2023-04-26T07:30:08.318Z,9.23
2023-04-26T07:32:36.735Z,5.20
2023-04-26T07:35:08.414Z,5.63
2023-04-26T07:37:36.729Z,5.10
2023-04-26T07:40:10.414Z,5.87
2023-04-26T07:42:40.137Z,5.50
2023-04-26T07:45:12.986Z,5.73
2023-04-26T07:47:41.313Z,8.43
2023-04-26T07:50:11.967Z,8.23
2023-04-26T07:52:40.389Z,6.77
2023-04-26T07:55:10.091Z,8.97
2023-04-26T07:57:39.769Z,6.63
2023-04-26T08:00:13.386Z,5.07
2023-04-26T08:02:44.728Z,7.60
2023-04-26T08:05:14.520Z,3.90
2023-04-26T08:07:43.644Z,4.20
2023-04-26T08:10:12.780Z,5.27
2023-04-26T08:12:42.432Z,6.63
2023-04-26T08:15:12.735Z,8.07
2023-04-26T08:17:41.772Z,6.17
2023-04-26T08:20:11.372Z,6.83
2023-04-26T08:22:39.684Z,7.87
2023-04-26T08:25:08.878Z,5.93
2023-04-26T08:27:37.526Z,5.03
2023-04-26T08:30:08.967Z,7.17
2023-04-26T08:32:37.269Z,4.60
2023-04-26T08:35:06.480Z,5.63
2023-04-26T08:37:35.854Z,8.87
2023-04-26T08:40:04.891Z,5.43
2023-04-26T08:42:34.457Z,6.67
2023-04-26T08:45:05.005Z,9.13
2023-04-26T08:47:45.827Z,7.03
2023-04-26T08:50:15.795Z,7.90
2023-04-26T08:52:45.585Z,5.97
2023-04-26T08:55:16.460Z,5.90
2023-04-26T08:57:47.377Z,5.73
2023-04-26T09:00:17.860Z,6.63
2023-04-26T09:02:52.978Z,6.33
2023-04-26T09:05:24.393Z,7.70
2023-04-26T09:07:58.954Z,8.97
2023-04-26T09:10:28.204Z,4.23
2023-04-26T09:12:56.818Z,10.60
2023-04-26T09:15:28.140Z,5.83
2023-04-26T09:17:57.939Z,6.17
2023-04-26T09:20:29.866Z,5.27
2023-04-26T09:23:09.141Z,4.90
2023-04-26T09:25:38.361Z,5.23
2023-04-26T09:28:22.411Z,5.00
2023-04-26T09:30:51.017Z,5.40
2023-04-26T09:33:21.466Z,6.57
2023-04-26T09:35:49.781Z,5.03
2023-04-26T09:38:19.748Z,5.67
2023-04-26T09:40:49.428Z,6.33
2023-04-26T09:43:19.656Z,7.17
2023-04-26T09:45:51.412Z,7.47
2023-04-26T09:48:25.752Z,5.17
2023-04-26T09:50:56.511Z,7.10
2023-04-26T09:53:29.963Z,5.43
2023-04-26T09:56:09.809Z,4.80
2023-04-26T09:58:39.965Z,5.70
2023-04-26T10:01:10.210Z,5.83
2023-04-26T10:03:40.363Z,5.33
2023-04-26T10:06:09.781Z,4.93
2023-04-26T10:08:38.510Z,3.87
2023-04-26T10:11:10.482Z,6.30
2023-04-26T10:13:39.672Z,4.33
2023-04-26T10:16:10.984Z,5.20
2023-04-26T10:18:41.072Z,3.53
2023-04-26T10:21:15.373Z,5.20
2023-04-26T10:23:44.060Z,3.43
2023-04-26T10:26:49.425Z,4.90
2023-04-26T10:29:17.854Z,3.20
2023-04-26T10:32:10.616Z,4.60
2023-04-26T10:34:40.488Z,4.17
2023-04-26T10:37:11.088Z,4.23
2023-04-26T10:39:40.210Z,3.87
2023-04-26T10:42:27.610Z,6.47
2023-04-26T10:44:58.441Z,4.63
2023-04-26T10:47:32.652Z,4.20
2023-04-26T10:50:08.676Z,6.90
2023-04-26T10:52:37.903Z,3.40
2023-04-26T10:55:10.393Z,4.17
2023-04-26T10:57:56.363Z,5.07
2023-04-26T11:00:32.330Z,4.23
2023-04-26T11:03:09.504Z,3.30
2023-04-26T11:05:43.488Z,6.07
2023-04-26T11:08:19.174Z,4.60
2023-04-26T11:10:53.296Z,4.27
2023-04-26T11:13:21.923Z,4.47
2023-04-26T11:15:54.995Z,3.47
2023-04-26T11:18:23.996Z,5.03
2023-04-26T11:20:53.710Z,4.80
2023-04-26T11:23:22.104Z,5.23
2023-04-26T11:25:50.478Z,3.60
2023-04-26T11:28:20.622Z,6.40
2023-04-26T11:30:51.072Z,4.37
2023-04-26T11:33:23.022Z,5.93
2023-04-26T11:35:56.913Z,3.00
2023-04-26T11:38:26.420Z,4.93
2023-04-26T11:40:57.361Z,3.60
2023-04-26T11:43:36.641Z,5.07
2023-04-26T11:46:06.805Z,3.20
2023-04-26T11:48:37.142Z,5.57
2023-04-26T11:51:08.299Z,4.37
2023-04-26T11:53:37.952Z,4.63
2023-04-26T11:56:15.484Z,2.43
2023-04-26T11:58:47.107Z,2.93
2023-04-26T12:01:23.464Z,5.63
2023-04-26T12:03:53.616Z,3.43
2023-04-26T12:06:32.837Z,4.30
2023-04-26T12:09:05.536Z,5.90
2023-04-26T12:11:33.926Z,5.30
2023-04-26T12:14:03.072Z,4.63
2023-04-26T12:16:31.486Z,6.53
2023-04-26T12:18:59.880Z,7.13
2023-04-26T12:21:30.886Z,8.63
2023-04-26T12:23:59.647Z,10.83
2023-04-26T12:26:44.744Z,6.57
2023-04-26T12:29:13.153Z,8.67
2023-04-26T12:31:41.754Z,8.33
2023-04-26T12:34:10.210Z,7.67
2023-04-26T12:36:43.269Z,13.10
2023-04-26T12:39:13.542Z,10.27
2023-04-26T12:41:42.224Z,4.10
2023-04-26T12:44:10.935Z,4.93
2023-04-26T12:46:39.679Z,4.17
2023-04-26T12:49:08.032Z,3.70
2023-04-26T12:51:36.350Z,5.20
2023-04-26T12:54:06.196Z,6.63
2023-04-26T12:56:38.611Z,3.67
2023-04-26T12:59:07.304Z,3.33
2023-04-26T13:01:36.225Z,4.60
2023-04-26T13:04:05.933Z,2.73
2023-04-26T13:06:35.882Z,3.50
2023-04-26T13:09:07.862Z,2.77
2023-04-26T13:11:36.340Z,4.60
2023-04-26T13:14:06.807Z,4.80
2023-04-26T13:16:35.298Z,2.87
2023-04-26T13:19:03.725Z,5.13
2023-04-26T13:21:32.711Z,4.43
2023-04-26T13:24:01.267Z,4.03
2023-04-26T13:26:30.994Z,4.50
2023-04-26T13:28:59.313Z,4.03
2023-04-26T13:31:28.064Z,3.73
2023-04-26T13:33:56.420Z,3.47
2023-04-26T13:36:24.878Z,3.23
2023-04-26T13:38:53.156Z,3.47
2023-04-26T13:41:22.448Z,4.60
2023-04-26T13:43:52.171Z,4.07
2023-04-26T13:46:20.814Z,3.37
2023-04-26T13:48:49.220Z,3.50
2023-04-26T13:51:17.527Z,3.90
2023-04-26T13:53:45.811Z,3.00
2023-04-26T13:56:14.215Z,4.50
2023-04-26T13:58:44.402Z,5.80
2023-04-26T14:01:14.545Z,5.83
2023-04-26T14:03:43.238Z,2.70
2023-04-26T14:06:12.470Z,2.90
2023-04-26T14:08:40.846Z,3.97
2023-04-26T14:11:11.181Z,4.60
2023-04-26T14:13:39.783Z,7.27
2023-04-26T14:16:08.424Z,5.03
2023-04-26T14:18:40.591Z,3.93
2023-04-26T14:21:08.898Z,4.93
2023-04-26T14:23:37.180Z,2.97
2023-04-26T14:26:05.789Z,3.93
2023-04-26T14:28:34.235Z,4.40
2023-04-26T14:31:02.500Z,3.57
2023-04-26T14:33:30.899Z,3.70
2023-04-26T14:36:00.584Z,4.37
2023-04-26T14:38:28.804Z,3.13
2023-04-26T14:40:57.183Z,4.10
2023-04-26T14:43:25.397Z,4.90
2023-04-26T14:45:53.834Z,2.93
2023-04-26T14:48:22.137Z,5.43
2023-04-26T14:50:50.435Z,5.73
2023-04-26T14:53:20.125Z,5.03
2023-04-26T14:55:55.693Z,4.03
2023-04-26T14:58:24.280Z,3.33
2023-04-26T15:00:52.930Z,4.07
2023-04-26T15:03:21.453Z,3.03
2023-04-26T15:05:49.888Z,4.57
2023-04-26T15:08:20.400Z,3.77
2023-04-26T15:10:48.756Z,3.67
2023-04-26T15:13:17.284Z,5.87
2023-04-26T15:15:45.798Z,3.90
2023-04-26T15:18:14.189Z,7.63
2023-04-26T15:20:42.578Z,4.47
2023-04-26T15:23:11.130Z,5.17
2023-04-26T15:25:43.688Z,3.40
2023-04-26T15:28:12.075Z,4.37
2023-04-26T15:30:40.752Z,4.90
2023-04-26T15:33:09.718Z,5.47
2023-04-26T15:35:38.081Z,2.50
2023-04-26T15:38:06.532Z,3.83
2023-04-26T15:40:36.914Z,4.50
2023-04-26T15:43:07.944Z,5.37
2023-04-26T15:45:37.154Z,2.53
2023-04-26T15:48:08.581Z,3.37
2023-04-26T15:50:38.459Z,5.43
2023-04-26T15:53:06.846Z,1.97
2023-04-26T15:55:38.322Z,6.90
2023-04-26T15:58:07.980Z,5.80
2023-04-26T16:00:36.454Z,4.87
2023-04-26T16:03:05.078Z,3.97
2023-04-26T16:05:36.171Z,5.27
2023-04-26T16:08:05.744Z,2.73
2023-04-26T16:10:34.891Z,4.23
2023-04-26T16:13:04.159Z,3.83
2023-04-26T16:15:33.953Z,3.63
2023-04-26T16:18:02.220Z,4.47
2023-04-26T16:20:31.490Z,3.77
2023-04-26T16:22:59.757Z,3.80
2023-04-26T16:25:28.181Z,2.60
2023-04-26T16:27:57.110Z,5.93
2023-04-26T16:30:25.531Z,3.37
2023-04-26T16:32:55.489Z,3.10
2023-04-26T16:35:23.976Z,3.17
2023-04-26T16:37:52.354Z,2.87
2023-04-26T16:40:21.628Z,4.00
2023-04-26T16:42:50.064Z,4.27
2023-04-26T16:45:18.888Z,3.43
2023-04-26T16:47:47.315Z,4.67
2023-04-26T16:50:17.029Z,4.43
2023-04-26T16:52:45.480Z,4.63
2023-04-26T16:55:13.934Z,4.37
2023-04-26T16:57:42.265Z,4.00
2023-04-26T17:00:12.394Z,2.40
2023-04-26T17:02:42.094Z,3.70
2023-04-26T17:05:18.117Z,4.17
2023-04-26T17:07:46.407Z,3.70
2023-04-26T17:10:14.832Z,7.47
2023-04-26T17:12:43.125Z,4.07
2023-04-26T17:15:12.805Z,5.30
2023-04-26T17:17:41.220Z,5.70
2023-04-26T17:20:13.513Z,2.40
2023-04-26T17:22:51.361Z,4.17
2023-04-26T17:25:20.674Z,3.23
2023-04-26T17:27:48.946Z,2.87
2023-04-26T17:30:23.851Z,5.43
2023-04-26T17:32:52.272Z,3.10
2023-04-26T17:35:20.660Z,2.57
2023-04-26T17:37:50.737Z,3.27
2023-04-26T17:40:25.350Z,3.67
2023-04-26T17:42:53.666Z,2.60
2023-04-26T17:45:22.001Z,4.53
2023-04-26T17:47:50.454Z,2.97
2023-04-26T17:50:23.491Z,3.67
2023-04-26T17:52:53.264Z,4.30
2023-04-26T17:55:21.885Z,3.30
2023-04-26T17:57:50.264Z,4.53
2023-04-26T18:00:20.004Z,2.53
2023-04-26T18:02:48.714Z,4.80
2023-04-26T18:05:17.446Z,3.80
2023-04-26T18:07:45.790Z,4.00
2023-04-26T18:10:29.629Z,2.13
2023-04-26T18:12:57.994Z,3.80
2023-04-26T18:15:26.665Z,2.90
2023-04-26T18:17:55.411Z,3.73
2023-04-26T18:20:24.093Z,2.57
2023-04-26T18:22:52.444Z,5.63
2023-04-26T18:25:22.170Z,3.53
2023-04-26T18:27:50.754Z,3.93
2023-04-26T18:30:19.307Z,3.27
2023-04-26T18:32:47.795Z,2.97
2023-04-26T18:35:16.220Z,3.77
2023-04-26T18:37:44.670Z,5.33
2023-04-26T18:40:14.409Z,6.10
2023-04-26T18:42:45.226Z,23.80
2023-04-26T18:45:14.543Z,22.50
2023-04-26T18:47:42.938Z,15.47
2023-04-26T18:50:11.795Z,10.87
2023-04-26T18:52:40.150Z,10.33
2023-04-26T18:55:11.646Z,9.40
2023-04-26T18:57:40.696Z,5.33
2023-04-26T19:00:11.935Z,7.27
2023-04-26T19:02:41.152Z,9.70
2023-04-26T19:05:11.792Z,22.47
2023-04-26T19:07:40.777Z,10.20
2023-04-26T19:10:10.859Z,9.83
2023-04-26T19:12:39.175Z,5.57
2023-04-26T19:15:13.816Z,4.27
2023-04-26T19:17:42.466Z,3.20
2023-04-26T19:20:13.105Z,3.30
2023-04-26T19:22:44.538Z,3.40
2023-04-26T19:25:12.985Z,7.47
2023-04-26T19:27:41.551Z,6.43
2023-04-26T19:30:12.956Z,4.23
2023-04-26T19:32:41.545Z,6.03
2023-04-26T19:37:39.073Z,9.33
2023-04-26T19:40:12.161Z,15.10
2023-04-26T19:42:40.489Z,11.03
2023-04-26T19:45:11.525Z,12.37
2023-04-26T19:47:43.382Z,7.70
2023-04-26T19:50:13.402Z,13.87
2023-04-26T19:52:41.749Z,22.93
2023-04-26T19:55:16.295Z,9.47
2023-04-26T19:57:44.803Z,6.07
2023-04-26T20:00:16.966Z,39.33
2023-04-26T20:02:45.409Z,74.03
2023-04-26T20:05:14.166Z,19.90
2023-04-26T20:07:42.790Z,35.53
2023-04-26T20:10:11.719Z,27.67
2023-04-26T20:12:40.552Z,15.43
2023-04-26T20:15:12.085Z,7.80
2023-04-26T20:17:42.496Z,7.23
2023-04-26T20:20:14.344Z,14.13
2023-04-26T20:22:42.862Z,8.80
2023-04-26T20:25:12.511Z,7.37
2023-04-26T20:27:40.911Z,6.43
2023-04-26T20:30:13.620Z,5.90
2023-04-26T20:32:43.420Z,9.30
2023-04-26T20:35:15.132Z,8.63
2023-04-26T20:37:43.499Z,6.30
2023-04-26T20:40:15.423Z,7.97
2023-04-26T20:42:43.781Z,8.83
2023-04-26T20:45:16.625Z,4.80
2023-04-26T20:47:47.041Z,6.53
2023-04-26T20:50:15.638Z,6.30
2023-04-26T20:52:43.977Z,4.37
2023-04-26T20:55:12.384Z,5.63
2023-04-26T20:57:41.822Z,4.33
2023-04-26T21:00:11.692Z,2.93
2023-04-26T21:02:40.450Z,5.20
2023-04-26T21:05:13.723Z,4.63
2023-04-26T21:07:42.260Z,3.07
2023-04-26T21:10:15.777Z,3.83
2023-04-26T21:12:44.131Z,4.03
2023-04-26T21:15:13.137Z,2.97
2023-04-26T21:17:41.655Z,5.50
2023-04-26T21:20:17.611Z,3.83
2023-04-26T21:22:45.948Z,4.17
2023-04-26T21:25:17.109Z,6.13
2023-04-26T21:27:45.444Z,4.83
2023-04-26T21:30:17.257Z,3.93
2023-04-26T21:32:45.604Z,4.33
2023-04-26T21:35:15.314Z,4.93
2023-04-26T21:37:43.668Z,6.63
2023-04-26T21:40:15.234Z,6.07
2023-04-26T21:42:48.883Z,5.33
2023-04-26T21:45:22.894Z,6.87
2023-04-26T21:47:51.628Z,5.03
2023-04-26T21:50:21.967Z,3.97
2023-04-26T21:52:50.539Z,2.63
2023-04-26T21:55:19.276Z,4.23
2023-04-26T21:57:47.547Z,4.73
2023-04-26T22:00:21.730Z,3.67
2023-04-26T22:02:53.388Z,3.13
2023-04-26T22:05:25.853Z,4.60
2023-04-26T22:07:54.572Z,3.30
2023-04-26T22:10:25.712Z,3.33
2023-04-26T22:12:54.056Z,3.73
2023-04-26T22:15:22.654Z,5.10
2023-04-26T22:17:51.154Z,4.20
2023-04-26T22:20:19.678Z,2.97
2023-04-26T22:22:49.356Z,3.60
2023-04-26T22:25:17.590Z,2.60
2023-04-26T22:27:45.960Z,8.40
2023-04-26T22:30:26.016Z,5.77
2023-04-26T22:32:57.356Z,8.60
2023-04-26T22:35:26.455Z,4.90
2023-04-26T22:37:56.711Z,5.60
2023-04-26T22:40:28.118Z,5.80
2023-04-26T22:42:56.454Z,3.57
2023-04-26T22:45:24.893Z,3.13
2023-04-26T22:47:53.234Z,4.40
2023-04-26T22:50:27.911Z,2.97
2023-04-26T22:52:57.595Z,5.70
2023-04-26T22:55:26.246Z,4.10
2023-04-26T22:57:54.607Z,3.13
2023-04-26T23:00:25.707Z,4.00
2023-04-26T23:02:54.290Z,11.57
2023-04-26T23:05:25.660Z,4.33
2023-04-26T23:07:53.933Z,4.93
2023-04-26T23:10:26.656Z,3.77
2023-04-26T23:12:55.435Z,2.93
2023-04-26T23:15:26.639Z,4.57
2023-04-26T23:17:55.025Z,6.37
2023-04-26T23:20:23.964Z,4.90
2023-04-26T23:22:52.209Z,7.10
2023-04-26T23:25:20.861Z,4.93
2023-04-26T23:27:56.611Z,2.80
2023-04-26T23:30:24.886Z,5.57
2023-04-26T23:32:53.211Z,6.17
2023-04-26T23:35:21.547Z,4.23
2023-04-26T23:37:52.398Z,4.17
2023-04-26T23:40:20.788Z,3.83
2023-04-26T23:42:49.166Z,4.23
2023-04-26T23:45:19.518Z,2.83
2023-04-26T23:47:50.527Z,4.23
2023-04-26T23:50:18.852Z,3.13
2023-04-26T23:52:47.153Z,5.10
2023-04-26T23:55:18.572Z,6.13
2023-04-26T23:57:46.820Z,5.33
